Logo AVAMET
Benvolgut visitant, si us plau, ingressa Recuperar contrasenya
AVAMET paisatges

Inforatge Gilet

Dades diàries. Acumulats / Últims 30 dies disponibles

Data Temperatura (°C) Humitat rel. (%) Pressió rel. (hPa) Vent (km/h) Precipitació
Mínima Mitjana Màxima Amplitud
tèrmica
Mínima Mitjana Màxima Mínima Mitjana Màxima Predom. Mitjana Ràfega
màxima
Total
(mm)
Índex-n
Mínima Mitjana Màxima Mínima Mitjana Màxima n
0 a 1
P0 max
mm 5'
Dades mensuals acumulades fins l'últim dia disponible
02/2020 4,6 8,7 13,5 13,5 13,8 19,5 27,2 22,6 28 73 94 1.026 1.032 1.039   2,8 38,6 0,2
Dades anuals acumulades fins l'últim dia disponible
2020 1,0 6,8 14,0 11,4 9,9 17,2 27,2 26,2 28 74 94 1.020 1.031 1.040   3,8 69,2 80,0
Últims 30 dies disponibles
18-02-2020 11,0     12,5     14,2 3,2 64 81 91 1.036 1.038 1.039 SO 1,4 17,7 0,2
17-02-2020 6,9     11,6     17,3 10,4 71 87 94 1.029 1.031 1.035 NW 2,9 19,3 0,0
16-02-2020 6,9     10,9     16,2 9,3 72 86 93 1.030 1.032 1.034 NW 2,1 16,1 0,0
15-02-2020 6,6     11,6     17,8 11,2 62 80 89 1.031 1.032 1.034 W 3,4 22,5 0,0
14-02-2020 9,7     15,0     20,9 11,2 45 65 84 1.029 1.031 1.032 WNW 2,7 20,9 0,0
13-02-2020 7,9     12,7     18,0 10,1 71 83 90 1.026 1.028 1.030 E 2,6 17,7 0,0
12-02-2020 10,7     13,6     17,8 7,1 65 78 89 1.029 1.030 1.032 E 3,7 32,2 0,0
11-02-2020 10,5     15,2     22,3 11,8 44 66 83 1.027 1.030 1.032 E 2,7 17,7 0,0
10-02-2020 7,4     15,1     23,9 16,5 45 70 89 1.031 1.033 1.036 WSW 2,4 19,3 0,0
09-02-2020 6,2     10,9     17,5 11,3 61 81 90 1.033 1.035 1.037 W 2,1 17,7 0,0
08-02-2020 5,8     10,1     16,0 10,2 66 82 91 1.029 1.031 1.034 W 2,3 16,1 0,0
07-02-2020 7,5     10,7     13,8 6,3 66 80 86 1.029 1.031 1.032 W 1,0 9,7 0,0
06-02-2020 4,6     9,3     15,1 10,5 59 79 88 1.031 1.033 1.035 W 2,4 20,9 0,0
05-02-2020 6,7     11,3     16,4 9,7 44 70 89 1.033 1.035 1.037 NW 2,1 22,5 0,0
04-02-2020 11,8     20,2     25,9 14,1 28 43 78 1.028 1.030 1.033 NW 7,2 38,6 0,0
03-02-2020 11,6     17,1     27,2 15,6 34 65 82 1.032 1.033 1.035 W 2,7 14,5 0,0
02-02-2020 13,5     17,6     24,7 11,2 42 63 79 1.031 1.033 1.034 W 2,7 25,7 0,0
01-02-2020 10,8     17,6     25,1 14,3 41 60 77 1.026 1.028 1.032 NW 4,5 32,2 0,0
31-01-2020 11,3     16,4     22,4 11,1 42 63 82 1.026 1.027 1.029 O 3,1 35,4 0,0
30-01-2020 11,1     15,4     21,7 10,6 40 61 77 1.024 1.027 1.028 WSW 4,5 35,4 0,0
29-01-2020 11,9     16,8     21,1 9,2 53 63 77 1.026 1.027 1.028 WSW 5,5 27,4 0,0
28-01-2020 14,0     16,2     18,2 4,2 58 63 71 1.025 1.026 1.027 WSW 10,3 69,2 0,0
27-01-2020 5,1     11,0     17,3 12,2 49 67 86 1.024 1.028 1.031 WSW 7,1 45,1 0,0
26-01-2020 6,9     11,1     17,3 10,4 58 82 93 1.024 1.026 1.031 W 1,6 17,7 0,0
25-01-2020 9,3     11,3     13,6 4,3 76 86 91 1.023 1.025 1.027 WNW 1,9 14,5 0,0
24-01-2020 7,2     10,9     15,2 8,0 67 83 92 1.026 1.028 1.029 WNW 1,6 11,3 0,0
23-01-2020 5,2     9,7     13,4 8,2 67 82 89 1.024 1.027 1.029 W 1,8 11,3 0,0
22-01-2020 8,0     11,3     14,4 6,4 73 81 91 1.022 1.025 1.026 NE 6,8 32,2 8,2 0,49 4,60
21-01-2020 7,9     10,3     13,4 5,5 81 88 94 1.020 1.023 1.027 NNW 10,6 62,8 29,0 0,55 2,90
20-01-2020 5,0     6,9     9,9 4,9 50 77 91 1.026 1.027 1.029 NNE 20,6 64,4 18,6 0,37 2,20
Últims 13 mesos disponibles
01/2020 1,0 5,7 14,0 10,1 9,9 15,9 22,4 21,4 56 74 88 1.023 1.031 1.038 W 4,4 69,2 79,8
12/2019 2,9 9,0 17,7 13,0 11,8 17,6 24,8 21,9 42 70 90 1.007 1.024 1.039 W 5,2 72,4 68,0
11/2019 4,8 11,0 21,2 15,5 15,5 19,7 28,7 23,9 42 54 75 1.003 1.016 1.023 WSW 7,2 66,0 2,2
10/2019 10,0 14,9 19,8 19,4 15,2 24,6 29,7 19,7 47 69 83 1.012 1.022 1.027 W 3,9 46,7 27,4
09/2019 14,4 18,9 22,3 22,8 20,7 27,2 32,2 17,8 45 72 82 1.016 1.024 1.031 SSO 4,5 48,3 117,2
08/2019 17,0 20,8 24,3 25,7 25,0 30,4 41,9 24,9 42 69 79 1.016 1.022 1.026 SSO 4,7 61,1 12,6
07/2019 19,4 20,9 23,4 26,1 27,3 31,0 36,6 17,2 47 63 78 1.011 1.020 1.027 S 4,9 45,0 12,2
06/2019 10,5 16,5 20,9 21,9 21,3 26,8 37,7 27,2 39 62 78 1.014 1.021 1.028 S 5,3 61,1 0,0
05/2019 8,3 13,3 17,9 17,9 18,4 22,6 32,7 24,4 45 66 84 1.011 1.021 1.030 S 4,7 51,9 22,0
04/2019 7,2 10,6 14,1 14,9 15,3 19,7 29,8 22,6 42 64 93 1.005 1.018 1.031 SSO 6,8 66,7 61,6
03/2019 4,6 8,0 12,6 13,7 12,1 19,6 28,2 23,6 40 59 86 1.016 1.028 1.035 SSO 4,6 56,3 33,4
02/2019 1,6 5,5 10,8 10,8 10,7 17,1 26,2 24,6 34 64 86 998 1.029 1.039 SO 5,2 68,5 0,0
01/2019 1,2 5,3 11,6 10,4 9,1 16,1 20,9 19,7 37 60 85 1.005 1.024 1.035 SO 5,0 69,3 0,0
Tots els anys disponibles
2019 1,2 13,0 24,3 17,8 9,1 22,8 41,9 40,7 34 64 93 998 1.022 1.039 SSO 5,2 72,4 356,6
Temperatura (°C)
Humitat relativa (%)
Velocitat del vent i ràfega màxima (km/h)
Direcció del vent (°)
Pressió (hPa)
Precipitació (mm)
Nota sobre les dades: s'avisa a l'usuari de la provisionalitat i no oficialitat d'aquestes dades
Logo AVAMET blanc
Web allotjada a Sollutia
Llicència de Creative CommonsLa web d'AVAMET i els seus continguts estan subjectes a una llicència de
Reconeixement - No Comercial - Compartir igual
Últimes estacions:  Sorita (AVAMET), Gorga (Soci), Massalavés - Ajuntament (Soci/Inforatge), Albuixech - Polígon (Inforatge), La Torre d'en Besora (Ajuntament soci), Xixona - Sogorb Barranc Blanc (Soci), Pedreguer - Patronat (Soci) - - -